aviador You're here:

CYRV Decoded Metar

REVELSTOKE AIRPO in BC, CANADA
Report Time2017-03-28 06:00:00
UTC Time2017-03-28 06:18:48
Flight Rules lifr LIFR
WindCalm
Visibility805 m
Phenomena:Light Rain
Fog
Clouds:Few 004 Hf
Overcast 018 Hf
Ceiling1,800 ft
Temp02°C (ISA -10)
Dew Point02°C (100% RH)
AAT0.3°C
QNH1019 hPa
Density Alt125 ft
Elevation1,453 ft
Report Wrong Elevation
Raw Report
CYRV 280600Z AUTO 00000KT 1/2SM -RA FG FEW004 OVC018 02/02 A3009
RMK SLP207=

Extra information for CYRV:More info

Metar Taf Metar & Taf Last 4 Metars F.Rules Stats Wind Profile Meteogram Temp Stats Airport Information Weather charts Add Link Nearby VenuesMetar ALERT Operation Metar Decoded Social comments